createdAt,value
2018-03-25T00:00:58.816Z,1.71
2018-03-25T00:03:29.820Z,1.68
2018-03-25T00:06:00.257Z,1.68
2018-03-25T00:08:30.870Z,1.68
2018-03-25T00:11:00.814Z,1.69
2018-03-25T00:13:31.151Z,1.68
2018-03-25T00:16:02.303Z,1.65
2018-03-25T00:18:32.283Z,1.73
2018-03-25T00:21:03.527Z,1.75
2018-03-25T00:23:33.089Z,1.74
2018-03-25T00:26:03.158Z,1.76
2018-03-25T00:28:34.127Z,1.81
2018-03-25T00:31:04.286Z,1.84
2018-03-25T00:33:35.432Z,1.82
2018-03-25T00:36:04.881Z,1.80
2018-03-25T00:38:34.793Z,1.81
2018-03-25T00:41:08.824Z,1.80
2018-03-25T00:43:37.134Z,1.69
2018-03-25T00:46:07.548Z,1.59
2018-03-25T00:48:37.372Z,1.46
2018-03-25T00:51:07.396Z,1.36
2018-03-25T00:53:37.701Z,1.29
2018-03-25T00:56:07.634Z,1.22
2018-03-25T00:58:38.134Z,1.15
2018-03-25T01:01:12.927Z,1.10
2018-03-25T01:03:41.248Z,1.08
2018-03-25T01:06:10.130Z,1.03
2018-03-25T01:08:40.332Z,1.01
2018-03-25T01:11:10.235Z,0.99
2018-03-25T01:13:40.711Z,0.97
2018-03-25T01:16:12.031Z,0.97
2018-03-25T01:18:41.879Z,0.97
2018-03-25T01:21:11.507Z,0.98
2018-03-25T01:23:42.150Z,0.93
2018-03-25T01:26:13.021Z,0.87
2018-03-25T01:28:41.383Z,0.84
2018-03-25T01:31:12.999Z,0.77
2018-03-25T01:33:43.466Z,0.72
2018-03-25T01:36:13.348Z,0.68
2018-03-25T01:38:44.328Z,0.67
2018-03-25T01:41:14.532Z,0.71
2018-03-25T01:43:48.326Z,0.67
2018-03-25T01:46:16.843Z,0.63
2018-03-25T01:48:45.803Z,0.59
2018-03-25T01:51:16.467Z,0.54
2018-03-25T01:53:46.383Z,0.50
2018-03-25T01:56:20.248Z,0.47
2018-03-25T01:58:49.319Z,0.42
2018-03-25T02:01:18.166Z,0.34
2018-03-25T02:03:48.299Z,0.31
2018-03-25T02:06:18.346Z,0.26
2018-03-25T02:08:49.231Z,0.22
2018-03-25T02:11:19.604Z,0.13
2018-03-25T02:13:49.611Z,0.00
2018-03-25T02:16:20.183Z,-0.01
2018-03-25T02:18:50.915Z,-0.07
2018-03-25T02:21:21.868Z,-0.13
2018-03-25T02:23:51.494Z,-0.13
2018-03-25T02:26:21.604Z,-0.13
2018-03-25T02:28:52.766Z,-0.16
2018-03-25T02:31:22.741Z,-0.19
2018-03-25T02:33:53.360Z,-0.18
2018-03-25T02:36:23.358Z,-0.18
2018-03-25T02:38:53.945Z,-0.17
2018-03-25T02:41:24.624Z,-0.14
2018-03-25T02:43:54.903Z,-0.14
2018-03-25T02:46:26.977Z,-0.14
2018-03-25T02:48:56.545Z,-0.11
2018-03-25T02:51:25.646Z,-0.12
2018-03-25T02:53:56.437Z,-0.01
2018-03-25T02:56:26.319Z,0.00
2018-03-25T02:58:57.751Z,0.11
2018-03-25T03:01:27.760Z,0.08
2018-03-25T03:03:57.523Z,0.00
2018-03-25T03:06:28.486Z,0.00
2018-03-25T03:08:58.111Z,-0.02
2018-03-25T03:11:31.427Z,-0.01
2018-03-25T03:13:59.973Z,0.09
2018-03-25T03:16:29.470Z,0.06
2018-03-25T03:19:00.411Z,0.00
2018-03-25T03:21:30.361Z,-0.45
2018-03-25T03:24:01.033Z,-0.05
2018-03-25T03:26:31.299Z,-0.03
2018-03-25T03:29:00.956Z,0.03
2018-03-25T03:31:32.310Z,0.03
2018-03-25T03:34:01.988Z,0.00
2018-03-25T03:36:33.239Z,0.05
2018-03-25T03:39:03.969Z,0.01
2018-03-25T03:41:33.318Z,-0.01
2018-03-25T03:44:04.724Z,-0.03
2018-03-25T03:46:34.275Z,0.06
2018-03-25T03:49:07.151Z,0.08
2018-03-25T03:51:36.049Z,0.12
2018-03-25T03:54:05.330Z,0.17
2018-03-25T03:56:38.383Z,0.18
2018-03-25T03:59:06.774Z,0.19
2018-03-25T04:01:37.360Z,0.08
2018-03-25T04:04:07.113Z,0.18
2018-03-25T04:06:37.595Z,0.21
2018-03-25T04:09:08.570Z,0.16
2018-03-25T04:11:38.363Z,0.13
2018-03-25T04:14:09.143Z,0.13
2018-03-25T04:16:39.403Z,-0.13
2018-03-25T04:19:09.347Z,0.04
2018-03-25T04:21:40.349Z,0.04
2018-03-25T04:24:10.726Z,0.07
2018-03-25T04:26:43.698Z,0.02
2018-03-25T04:29:12.314Z,-0.03
2018-03-25T04:31:41.477Z,0.00
2018-03-25T04:34:12.169Z,0.02
2018-03-25T04:36:42.162Z,0.03
2018-03-25T04:39:13.290Z,0.05
2018-03-25T04:41:43.478Z,0.05
2018-03-25T04:44:13.421Z,0.04
2018-03-25T04:46:44.342Z,0.03
2018-03-25T04:49:14.474Z,0.04
2018-03-25T04:51:45.285Z,0.06
2018-03-25T04:54:15.298Z,0.09
2018-03-25T04:56:45.329Z,0.12
2018-03-25T04:59:16.415Z,0.13
2018-03-25T05:01:46.476Z,0.14
2018-03-25T05:04:19.898Z,0.17
2018-03-25T05:06:48.411Z,0.24
2018-03-25T05:09:17.570Z,0.28
2018-03-25T05:11:48.311Z,0.40
2018-03-25T05:14:18.148Z,0.47
2018-03-25T05:16:49.182Z,0.65
2018-03-25T05:19:19.505Z,0.76
2018-03-25T05:21:49.778Z,0.90
2018-03-25T05:24:20.280Z,1.00
2018-03-25T05:26:50.315Z,1.07
2018-03-25T05:29:21.404Z,1.19
2018-03-25T05:31:51.448Z,1.33
2018-03-25T05:34:21.255Z,1.42
2018-03-25T05:36:52.325Z,1.47
2018-03-25T05:39:22.561Z,1.55
2018-03-25T05:41:53.411Z,1.63
2018-03-25T05:44:23.314Z,1.65
2018-03-25T05:46:53.396Z,1.72
2018-03-25T05:49:24.467Z,1.82
2018-03-25T05:51:54.952Z,1.90
2018-03-25T05:54:25.465Z,2.00
2018-03-25T05:56:55.332Z,2.13
2018-03-25T05:59:25.199Z,2.24
2018-03-25T06:01:56.414Z,2.32
2018-03-25T06:04:26.417Z,2.43
2018-03-25T06:06:57.758Z,2.54
2018-03-25T06:09:27.487Z,2.65
2018-03-25T06:11:57.388Z,2.78
2018-03-25T06:14:28.448Z,2.88
2018-03-25T06:16:58.379Z,2.99
2018-03-25T06:19:29.416Z,3.12
2018-03-25T06:21:59.723Z,3.20
2018-03-25T06:24:29.505Z,3.32
2018-03-25T06:27:01.174Z,3.40
2018-03-25T06:29:30.468Z,3.48
2018-03-25T06:32:01.071Z,3.56
2018-03-25T06:34:31.382Z,3.65
2018-03-25T06:37:01.418Z,3.76
2018-03-25T06:39:32.250Z,3.81
2018-03-25T06:42:02.457Z,3.90
2018-03-25T06:44:33.041Z,3.96
2018-03-25T06:47:03.396Z,4.04
2018-03-25T06:49:33.483Z,4.13
2018-03-25T06:52:04.390Z,4.21
2018-03-25T06:54:34.578Z,4.27
2018-03-25T06:57:05.477Z,4.35
2018-03-25T06:59:36.028Z,4.44
2018-03-25T07:02:06.088Z,4.54
2018-03-25T07:05:04.866Z,4.65
2018-03-25T07:07:37.449Z,4.79
2018-03-25T07:10:16.745Z,4.89
2018-03-25T07:12:45.096Z,5.00
2018-03-25T07:15:13.445Z,5.13
2018-03-25T07:17:43.140Z,5.21
2018-03-25T07:20:11.452Z,5.33
2018-03-25T07:22:40.896Z,5.44
2018-03-25T07:25:10.213Z,5.52
2018-03-25T07:27:46.031Z,5.61
2018-03-25T07:30:14.388Z,5.66
2018-03-25T07:32:43.290Z,5.74
2018-03-25T07:35:13.025Z,5.83
2018-03-25T07:37:43.082Z,5.87
2018-03-25T07:40:14.511Z,5.93
2018-03-25T07:42:47.309Z,5.76
2018-03-25T07:45:15.677Z,6.12
2018-03-25T07:47:45.005Z,6.12
2018-03-25T07:50:15.180Z,6.11
2018-03-25T07:52:56.814Z,6.23
2018-03-25T07:55:25.164Z,6.33
2018-03-25T07:57:53.488Z,6.30
2018-03-25T08:00:21.844Z,6.48
2018-03-25T08:02:50.964Z,6.56
2018-03-25T08:05:19.287Z,6.58
2018-03-25T08:07:48.245Z,6.61
2018-03-25T08:10:16.585Z,6.65
2018-03-25T08:12:44.977Z,6.72
2018-03-25T08:15:14.929Z,6.75
2018-03-25T08:17:44.060Z,6.84
2018-03-25T08:20:13.664Z,6.92
2018-03-25T08:22:42.766Z,7.17
2018-03-25T08:25:11.952Z,7.34
2018-03-25T08:27:40.284Z,7.45
2018-03-25T08:30:08.665Z,7.82
2018-03-25T08:32:37.049Z,8.28
2018-03-25T08:35:05.386Z,8.34
2018-03-25T08:37:34.471Z,8.18
2018-03-25T08:40:03.655Z,8.18
2018-03-25T08:42:32.022Z,8.36
2018-03-25T08:45:00.383Z,8.45
2018-03-25T08:47:28.690Z,8.53
2018-03-25T08:49:57.057Z,8.28
2018-03-25T08:52:25.430Z,8.08
2018-03-25T08:54:54.660Z,8.07
2018-03-25T08:57:23.793Z,8.03
2018-03-25T08:59:52.202Z,8.17
2018-03-25T09:02:20.586Z,7.94
2018-03-25T09:04:50.176Z,8.06
2018-03-25T09:07:18.494Z,8.07
2018-03-25T09:09:48.020Z,8.08
2018-03-25T09:12:16.995Z,8.18
2018-03-25T09:14:46.882Z,8.17
2018-03-25T09:17:15.998Z,8.16
2018-03-25T09:19:45.152Z,8.25
2018-03-25T09:22:13.521Z,8.18
2018-03-25T09:24:41.910Z,8.23
2018-03-25T09:27:10.289Z,8.29
2018-03-25T09:29:39.429Z,8.37
2018-03-25T09:32:08.640Z,8.37
2018-03-25T09:34:37.050Z,8.45
2018-03-25T09:37:05.497Z,8.51
2018-03-25T09:39:33.874Z,8.53
2018-03-25T09:42:02.255Z,8.53
2018-03-25T09:44:31.484Z,8.60
2018-03-25T09:46:59.895Z,8.69
2018-03-25T09:49:28.210Z,8.70
2018-03-25T09:51:57.548Z,8.50
2018-03-25T09:54:25.937Z,8.35
2018-03-25T09:56:55.493Z,8.50
2018-03-25T09:59:23.814Z,8.65
2018-03-25T10:01:57.580Z,8.60
2018-03-25T10:04:25.904Z,8.67
2018-03-25T10:06:54.637Z,8.69
2018-03-25T10:09:23.008Z,8.67
2018-03-25T10:11:51.705Z,8.76
2018-03-25T10:14:20.092Z,8.90
2018-03-25T10:16:49.266Z,8.87
2018-03-25T10:19:18.381Z,8.81
2018-03-25T10:21:46.713Z,8.81
2018-03-25T10:24:15.081Z,8.88
2018-03-25T10:26:44.321Z,9.01
2018-03-25T10:29:13.401Z,9.35
2018-03-25T10:31:42.807Z,9.68
2018-03-25T10:34:11.133Z,9.60
2018-03-25T10:36:39.512Z,10.29
2018-03-25T10:39:07.855Z,10.98
2018-03-25T10:41:36.211Z,11.41
2018-03-25T10:44:05.331Z,11.70
2018-03-25T10:46:33.722Z,11.55
2018-03-25T10:49:02.083Z,11.07
2018-03-25T10:51:30.418Z,10.98
2018-03-25T10:53:58.765Z,11.01
2018-03-25T10:56:27.543Z,11.07
2018-03-25T10:58:55.903Z,11.59
2018-03-25T11:01:25.006Z,11.69
2018-03-25T11:03:53.352Z,12.06
2018-03-25T11:06:21.709Z,11.87
2018-03-25T11:08:50.079Z,12.46
2018-03-25T11:11:18.407Z,11.89
2018-03-25T11:13:47.547Z,11.64
2018-03-25T11:16:15.916Z,11.99
2018-03-25T11:18:44.270Z,11.54
2018-03-25T11:21:12.595Z,11.19
2018-03-25T11:23:40.986Z,11.17
2018-03-25T11:26:09.333Z,11.45
2018-03-25T11:28:37.735Z,11.99
2018-03-25T11:31:06.079Z,11.92
2018-03-25T11:33:34.433Z,12.16
2018-03-25T11:36:03.679Z,11.90
2018-03-25T11:38:32.056Z,11.69
2018-03-25T11:41:00.421Z,11.38
2018-03-25T11:43:28.831Z,11.77
2018-03-25T11:45:57.198Z,12.14
2018-03-25T11:48:25.523Z,12.72
2018-03-25T11:50:53.862Z,12.66
2018-03-25T11:53:22.990Z,12.50
2018-03-25T11:55:51.379Z,12.31
2018-03-25T11:58:19.759Z,12.29
2018-03-25T12:00:48.103Z,12.46
2018-03-25T12:03:16.478Z,12.55
2018-03-25T12:05:44.806Z,12.83
2018-03-25T12:08:13.167Z,13.42
2018-03-25T12:10:41.530Z,13.19
2018-03-25T12:13:09.883Z,12.62
2018-03-25T12:15:38.252Z,12.27
2018-03-25T12:18:06.583Z,12.05
2018-03-25T12:20:34.955Z,12.38
2018-03-25T12:23:03.270Z,12.49
2018-03-25T12:25:31.743Z,12.36
2018-03-25T12:28:00.139Z,12.60
2018-03-25T12:30:28.495Z,12.27
2018-03-25T12:32:56.866Z,12.31
2018-03-25T12:35:25.271Z,12.42
2018-03-25T12:37:54.246Z,12.44
2018-03-25T12:40:22.702Z,12.62
2018-03-25T12:42:51.070Z,12.58
2018-03-25T12:45:19.447Z,12.77
2018-03-25T12:47:47.836Z,13.13
2018-03-25T12:50:16.250Z,13.55
2018-03-25T12:52:44.646Z,13.63
2018-03-25T12:55:13.030Z,13.29
2018-03-25T12:57:41.413Z,13.16
2018-03-25T13:00:10.532Z,12.73
2018-03-25T13:02:38.897Z,13.41
2018-03-25T13:05:08.042Z,13.40
2018-03-25T13:07:36.422Z,13.31
2018-03-25T13:10:04.762Z,13.54
2018-03-25T13:12:33.094Z,13.24
2018-03-25T13:15:01.456Z,13.36
2018-03-25T13:17:29.802Z,13.30
2018-03-25T13:19:59.118Z,12.42
2018-03-25T13:22:27.501Z,12.08
2018-03-25T13:24:55.843Z,11.73
2018-03-25T13:27:24.222Z,11.72
2018-03-25T13:29:53.460Z,11.43
2018-03-25T13:32:22.638Z,11.54
2018-03-25T13:34:50.970Z,11.51
2018-03-25T13:37:19.332Z,11.53
2018-03-25T13:39:47.796Z,11.51
2018-03-25T13:42:16.167Z,11.33
2018-03-25T13:44:44.556Z,11.34
2018-03-25T13:47:12.970Z,11.29
2018-03-25T13:49:41.309Z,11.25
2018-03-25T13:52:09.674Z,11.14
2018-03-25T13:54:39.940Z,11.19
2018-03-25T13:57:08.347Z,11.24
2018-03-25T13:59:36.798Z,11.20
2018-03-25T14:02:05.919Z,11.06
2018-03-25T14:04:34.274Z,11.11
2018-03-25T14:07:02.762Z,11.00
2018-03-25T14:09:31.110Z,11.00
2018-03-25T14:11:59.492Z,11.00
2018-03-25T14:14:27.902Z,11.02
2018-03-25T14:16:57.014Z,11.04
2018-03-25T14:19:25.397Z,11.06
2018-03-25T14:21:53.801Z,11.06
2018-03-25T14:24:23.088Z,11.01
2018-03-25T14:26:51.421Z,11.07
2018-03-25T14:29:19.782Z,11.02
2018-03-25T14:31:48.221Z,10.95
2018-03-25T14:34:16.557Z,10.97
2018-03-25T14:36:44.871Z,10.96
2018-03-25T14:39:13.227Z,10.90
2018-03-25T14:41:42.309Z,10.90
2018-03-25T14:44:10.682Z,10.82
2018-03-25T14:46:38.996Z,10.89
2018-03-25T14:49:07.373Z,10.92
2018-03-25T14:51:35.785Z,10.88
2018-03-25T14:54:04.949Z,10.81
2018-03-25T14:56:33.339Z,10.70
2018-03-25T15:01:59.688Z,10.79
2018-03-25T15:04:27.995Z,10.70
2018-03-25T15:06:56.349Z,10.60
2018-03-25T15:09:24.701Z,10.49
2018-03-25T15:11:53.085Z,10.59
2018-03-25T15:14:22.467Z,10.56
2018-03-25T15:16:51.615Z,10.54
2018-03-25T15:19:20.134Z,10.55
2018-03-25T15:21:48.501Z,10.59
2018-03-25T15:24:17.033Z,10.61
2018-03-25T15:26:46.953Z,10.98
2018-03-25T15:29:16.836Z,10.95
2018-03-25T15:31:46.317Z,10.92
2018-03-25T15:34:14.706Z,10.85
2018-03-25T15:36:43.830Z,10.78
2018-03-25T15:39:12.160Z,10.64
2018-03-25T15:41:40.540Z,10.51
2018-03-25T15:44:09.025Z,10.57
2018-03-25T15:46:37.376Z,10.48
2018-03-25T15:49:05.692Z,10.48
2018-03-25T15:51:34.886Z,10.42
2018-03-25T15:54:03.681Z,10.36
2018-03-25T15:56:33.160Z,10.36
2018-03-25T15:59:01.529Z,10.16
2018-03-25T16:01:30.048Z,10.08
2018-03-25T16:03:58.835Z,10.02
2018-03-25T16:06:27.955Z,10.04
2018-03-25T16:08:56.344Z,9.92
2018-03-25T16:11:24.728Z,9.88
2018-03-25T16:13:53.102Z,9.86
2018-03-25T16:16:29.398Z,9.81
2018-03-25T16:19:03.213Z,9.74
2018-03-25T16:21:34.031Z,9.70
2018-03-25T16:24:02.768Z,9.70
2018-03-25T16:26:32.450Z,9.59
2018-03-25T16:29:01.842Z,9.51
2018-03-25T16:31:31.550Z,9.38
2018-03-25T16:34:01.693Z,9.27
2018-03-25T16:36:30.897Z,9.16
2018-03-25T16:39:00.393Z,9.10
2018-03-25T16:41:29.731Z,9.00
2018-03-25T16:43:59.002Z,8.93
2018-03-25T16:46:30.743Z,8.81
2018-03-25T16:48:59.332Z,8.70
2018-03-25T16:51:27.819Z,8.59
2018-03-25T16:53:56.323Z,8.45
2018-03-25T16:56:25.437Z,8.38
2018-03-25T16:58:54.018Z,8.35
2018-03-25T17:01:22.564Z,8.28
2018-03-25T17:03:51.196Z,8.14
2018-03-25T17:06:19.631Z,8.01
2018-03-25T17:08:49.007Z,7.93
2018-03-25T17:11:17.341Z,7.78
2018-03-25T17:13:47.199Z,7.72
2018-03-25T17:16:16.621Z,7.56
2018-03-25T17:18:46.279Z,7.47
2018-03-25T17:21:14.683Z,7.42
2018-03-25T17:23:43.803Z,7.32
2018-03-25T17:26:12.900Z,7.19
2018-03-25T17:28:42.468Z,7.08
2018-03-25T17:31:10.833Z,6.98
2018-03-25T17:33:39.177Z,6.94
2018-03-25T17:36:08.369Z,6.90
2018-03-25T17:38:36.704Z,6.85
2018-03-25T17:41:05.084Z,6.79
2018-03-25T17:43:34.218Z,6.69
2018-03-25T17:46:03.613Z,6.66
2018-03-25T17:51:17.049Z,6.44
2018-03-25T17:53:45.394Z,6.39
2018-03-25T17:56:14.637Z,6.35
2018-03-25T17:58:50.173Z,6.36
2018-03-25T18:01:18.588Z,6.31
2018-03-25T18:03:48.924Z,6.24
2018-03-25T18:06:18.993Z,6.23
2018-03-25T18:08:47.418Z,6.21
2018-03-25T18:11:15.744Z,6.12
2018-03-25T18:13:44.100Z,6.12
2018-03-25T18:16:12.450Z,6.06
2018-03-25T18:18:40.812Z,5.95
2018-03-25T18:21:09.274Z,5.94
2018-03-25T18:23:38.461Z,5.86
2018-03-25T18:26:08.424Z,5.79
2018-03-25T18:28:36.783Z,5.71
2018-03-25T18:31:06.309Z,5.75
2018-03-25T18:33:34.647Z,5.75
2018-03-25T18:36:03.840Z,5.71
2018-03-25T18:38:32.968Z,5.68
2018-03-25T18:41:01.316Z,5.63
2018-03-25T18:43:30.442Z,5.55
2018-03-25T18:45:58.798Z,5.48
2018-03-25T18:48:27.244Z,5.42
2018-03-25T18:50:56.774Z,5.36
2018-03-25T18:53:27.390Z,5.33
2018-03-25T18:55:55.724Z,5.34
2018-03-25T18:58:24.132Z,5.26
2018-03-25T19:00:52.484Z,5.21
2018-03-25T19:03:21.642Z,5.15
2018-03-25T19:05:51.138Z,5.08
2018-03-25T19:08:21.078Z,5.10
2018-03-25T19:10:50.790Z,5.01
2018-03-25T19:13:19.148Z,4.94
2018-03-25T19:15:49.058Z,4.88
2018-03-25T19:18:18.167Z,4.80
2018-03-25T19:20:47.882Z,4.70
2018-03-25T19:23:16.256Z,4.72
2018-03-25T19:25:47.058Z,4.73
2018-03-25T19:28:16.736Z,4.74
2018-03-25T19:30:45.905Z,4.70
2018-03-25T19:33:14.277Z,4.65
2018-03-25T19:35:43.097Z,4.65
2018-03-25T19:38:11.483Z,4.60
2018-03-25T19:40:41.129Z,4.59
2018-03-25T19:43:10.260Z,4.61
2018-03-25T19:45:38.713Z,4.60
2018-03-25T19:48:07.831Z,4.68
2018-03-25T19:50:36.224Z,4.75
2018-03-25T19:53:04.584Z,4.78
2018-03-25T19:55:32.917Z,4.82
2018-03-25T19:58:02.117Z,4.88
2018-03-25T20:00:32.335Z,4.89
2018-03-25T20:03:00.707Z,4.93
2018-03-25T20:05:29.627Z,4.96
2018-03-25T20:07:58.798Z,4.98
2018-03-25T20:10:28.018Z,5.02
2018-03-25T20:12:57.756Z,5.08
2018-03-25T20:15:28.067Z,5.11
2018-03-25T20:17:56.443Z,5.18
2018-03-25T20:20:24.760Z,5.26
2018-03-25T20:22:53.188Z,5.32
2018-03-25T20:25:22.324Z,5.42
2018-03-25T20:27:50.634Z,5.51
2018-03-25T20:30:19.107Z,5.60
2018-03-25T20:32:47.457Z,5.65
2018-03-25T20:35:17.178Z,5.73
2018-03-25T20:37:45.579Z,5.74
2018-03-25T20:40:13.923Z,5.78
2018-03-25T20:42:42.263Z,5.86
2018-03-25T20:45:11.404Z,5.93
2018-03-25T20:47:39.734Z,5.98
2018-03-25T20:50:08.843Z,6.04
2018-03-25T20:52:38.138Z,6.09
2018-03-25T20:55:06.571Z,6.11
2018-03-25T20:57:34.831Z,6.12
2018-03-25T21:00:03.161Z,6.12
2018-03-25T21:02:32.894Z,6.17
2018-03-25T21:05:01.989Z,6.19
2018-03-25T21:07:30.327Z,6.21
2018-03-25T21:09:58.673Z,6.28
2018-03-25T21:12:27.030Z,6.27
2018-03-25T21:14:55.468Z,6.29
2018-03-25T21:17:23.851Z,6.30
2018-03-25T21:19:52.939Z,6.32
2018-03-25T21:22:21.291Z,6.29
2018-03-25T21:24:49.655Z,6.32
2018-03-25T21:27:17.990Z,6.34
2018-03-25T21:29:47.109Z,6.37
2018-03-25T21:32:16.196Z,6.38
2018-03-25T21:34:44.568Z,6.32
2018-03-25T21:37:12.888Z,6.34
2018-03-25T21:39:41.196Z,6.43
2018-03-25T21:42:09.541Z,6.46
2018-03-25T21:44:37.859Z,6.46
2018-03-25T21:47:06.974Z,6.45
2018-03-25T21:49:35.290Z,6.45
2018-03-25T21:52:03.612Z,6.44
2018-03-25T21:54:32.731Z,6.44
2018-03-25T21:57:01.058Z,6.50
2018-03-25T21:59:29.411Z,6.68
2018-03-25T22:01:57.748Z,6.56
2018-03-25T22:04:26.881Z,6.48
2018-03-25T22:06:55.188Z,6.51
2018-03-25T22:09:23.548Z,6.47
2018-03-25T22:11:51.866Z,6.33
2018-03-25T22:14:20.963Z,6.29
2018-03-25T22:16:50.076Z,6.32
2018-03-25T22:19:18.389Z,6.34
2018-03-25T22:21:46.709Z,6.36
2018-03-25T22:24:15.836Z,6.32
2018-03-25T22:26:44.182Z,6.28
2018-03-25T22:29:13.261Z,6.23
2018-03-25T22:31:42.486Z,6.21
2018-03-25T22:34:11.616Z,6.24
2018-03-25T22:36:39.930Z,6.20
2018-03-25T22:39:08.244Z,6.22
2018-03-25T22:41:36.582Z,6.25
2018-03-25T22:44:04.933Z,6.28
2018-03-25T22:46:33.295Z,6.21
2018-03-25T22:49:02.025Z,6.18
2018-03-25T22:51:30.430Z,6.20
2018-03-25T22:53:59.513Z,6.30
2018-03-25T22:56:28.259Z,6.19
2018-03-25T22:58:56.572Z,6.16
2018-03-25T23:01:25.697Z,6.20
2018-03-25T23:03:54.056Z,6.20
2018-03-25T23:06:23.174Z,6.13
2018-03-25T23:08:51.502Z,6.15
2018-03-25T23:11:19.845Z,6.13
2018-03-25T23:13:48.147Z,6.10
2018-03-25T23:16:16.505Z,6.08
2018-03-25T23:18:44.844Z,6.14
2018-03-25T23:21:13.973Z,6.19
2018-03-25T23:23:42.307Z,6.12
2018-03-25T23:26:11.454Z,6.08
2018-03-25T23:28:39.784Z,6.07
2018-03-25T23:31:08.879Z,6.12
2018-03-25T23:33:37.965Z,6.17
2018-03-25T23:36:07.082Z,6.16
2018-03-25T23:38:35.453Z,6.15
2018-03-25T23:41:03.771Z,6.19
2018-03-25T23:43:32.093Z,6.14
2018-03-25T23:46:01.206Z,6.15
2018-03-25T23:48:29.561Z,6.12
2018-03-25T23:50:58.680Z,6.11
2018-03-25T23:53:27.006Z,6.11
2018-03-25T23:55:55.353Z,6.14
2018-03-25T23:58:23.705Z,6.11
